createdAt,value
2023-02-06T00:02:04.857Z,-3.18
2023-02-06T00:04:35.830Z,-3.21
2023-02-06T00:07:08.070Z,-3.24
2023-02-06T00:09:38.660Z,-3.27
2023-02-06T00:12:11.846Z,-3.30
2023-02-06T00:14:42.438Z,-3.30
2023-02-06T00:17:13.066Z,-3.26
2023-02-06T00:19:45.020Z,-3.20
2023-02-06T00:22:16.105Z,-3.15
2023-02-06T00:24:50.059Z,-3.09
2023-02-06T00:27:20.574Z,-3.03
2023-02-06T00:29:54.179Z,-2.97
2023-02-06T00:32:24.637Z,-2.96
2023-02-06T00:34:55.138Z,-2.93
2023-02-06T00:37:26.841Z,-2.92
2023-02-06T00:39:58.686Z,-2.94
2023-02-06T00:42:30.612Z,-2.98
2023-02-06T00:45:01.198Z,-2.98
2023-02-06T00:47:35.734Z,-2.99
2023-02-06T00:50:08.995Z,-2.99
2023-02-06T00:52:39.357Z,-3.00
2023-02-06T00:55:10.396Z,-3.02
2023-02-06T00:57:41.728Z,-3.04
2023-02-06T01:00:14.612Z,-3.05
2023-02-06T01:02:47.107Z,-3.02
2023-02-06T01:05:17.838Z,-2.98
2023-02-06T01:07:48.272Z,-2.95
2023-02-06T01:10:18.948Z,-2.92
2023-02-06T01:12:49.402Z,-2.89
2023-02-06T01:15:20.114Z,-2.86
2023-02-06T01:17:50.661Z,-2.84
2023-02-06T01:20:22.017Z,-2.83
2023-02-06T01:22:53.058Z,-2.83
2023-02-06T01:25:23.828Z,-2.83
2023-02-06T01:27:54.523Z,-2.84
2023-02-06T01:30:25.430Z,-2.86
2023-02-06T01:32:56.125Z,-2.91
2023-02-06T01:35:27.378Z,-2.94
2023-02-06T01:37:57.722Z,-2.96
2023-02-06T01:40:28.479Z,-2.92
2023-02-06T01:43:02.543Z,-2.89
2023-02-06T01:45:44.522Z,-2.84
2023-02-06T01:48:29.176Z,-2.80
2023-02-06T01:51:00.467Z,-2.79
2023-02-06T01:53:37.804Z,-2.81
2023-02-06T01:56:10.905Z,-2.84
2023-02-06T01:58:47.814Z,-2.82
2023-02-06T02:01:19.014Z,-2.81
2023-02-06T02:03:52.124Z,-2.80
2023-02-06T02:06:27.143Z,-2.79
2023-02-06T02:08:59.522Z,-2.79
2023-02-06T02:18:05.118Z,-2.82
2023-02-06T02:21:13.238Z,-2.82
2023-02-06T02:24:19.053Z,-2.77
2023-02-06T02:27:16.030Z,-2.71
2023-02-06T02:30:03.393Z,-2.69
2023-02-06T02:32:40.106Z,-2.65
2023-02-06T02:35:31.261Z,-2.61
2023-02-06T02:38:26.833Z,-2.57
2023-02-06T02:41:39.205Z,-2.59
2023-02-06T02:44:14.461Z,-2.59
2023-02-06T02:46:54.173Z,-2.61
2023-02-06T02:49:29.423Z,-2.62
2023-02-06T02:52:02.306Z,-2.61
2023-02-06T02:54:33.082Z,-2.62
2023-02-06T02:57:10.905Z,-2.62
2023-02-06T02:59:46.856Z,-2.59
2023-02-06T03:02:27.853Z,-2.55
2023-02-06T03:05:04.735Z,-2.56
2023-02-06T03:07:42.635Z,-2.57
2023-02-06T03:10:41.884Z,-2.56
2023-02-06T03:13:33.623Z,-2.55
2023-02-06T03:16:19.981Z,-2.56
2023-02-06T03:19:06.910Z,-2.58
2023-02-06T03:21:38.895Z,-2.57
2023-02-06T03:24:19.333Z,-2.57
2023-02-06T03:26:53.624Z,-2.57
2023-02-06T03:29:24.751Z,-2.57
2023-02-06T03:32:02.346Z,-2.57
2023-02-06T03:34:52.763Z,-2.54
2023-02-06T03:37:25.165Z,-2.48
2023-02-06T03:39:57.749Z,-2.44
2023-02-06T03:42:31.722Z,-2.41
2023-02-06T03:45:07.975Z,-2.40
2023-02-06T03:47:50.949Z,-2.37
2023-02-06T03:50:23.176Z,-2.35
2023-02-06T03:53:00.656Z,-2.33
2023-02-06T03:55:33.254Z,-2.32
2023-02-06T03:58:09.759Z,-2.32
2023-02-06T04:00:46.769Z,-2.32
2023-02-06T04:03:20.397Z,-2.34
2023-02-06T04:05:52.582Z,-2.36
2023-02-06T04:08:23.335Z,-2.39
2023-02-06T04:10:56.226Z,-2.40
2023-02-06T04:13:26.841Z,-2.37
2023-02-06T04:15:58.054Z,-2.34
2023-02-06T04:18:33.281Z,-2.31
2023-02-06T04:21:08.591Z,-2.29
2023-02-06T04:23:39.193Z,-2.26
2023-02-06T04:26:11.885Z,-2.21
2023-02-06T04:28:46.334Z,-2.20
2023-02-06T04:31:16.910Z,-2.19
2023-02-06T04:33:47.353Z,-2.18
2023-02-06T04:36:20.565Z,-2.19
2023-02-06T04:38:50.931Z,-2.21
2023-02-06T04:41:21.555Z,-2.22
2023-02-06T04:43:52.190Z,-2.24
2023-02-06T04:46:25.255Z,-2.26
2023-02-06T04:48:55.908Z,-2.27
2023-02-06T04:51:26.282Z,-2.30
2023-02-06T04:53:56.740Z,-2.29
2023-02-06T04:56:29.216Z,-2.30
2023-02-06T04:59:01.576Z,-2.27
2023-02-06T05:01:32.269Z,-2.22
2023-02-06T05:04:02.954Z,-2.16
2023-02-06T05:06:38.491Z,-2.15
2023-02-06T05:09:11.868Z,-2.16
2023-02-06T05:11:45.015Z,-2.16
2023-02-06T05:14:15.419Z,-2.16
2023-02-06T05:16:50.027Z,-2.17
2023-02-06T05:19:24.173Z,-2.20
2023-02-06T05:21:54.844Z,-2.25
2023-02-06T05:24:25.604Z,-2.28
2023-02-06T05:26:58.768Z,-2.31
2023-02-06T05:29:29.256Z,-2.35
2023-02-06T05:32:03.323Z,-2.39
2023-02-06T05:34:33.824Z,-2.40
2023-02-06T05:37:08.538Z,-2.37
2023-02-06T05:39:50.177Z,-2.33
2023-02-06T05:42:28.752Z,-2.29
2023-02-06T05:45:02.078Z,-2.25
2023-02-06T05:47:32.401Z,-2.22
2023-02-06T05:50:02.958Z,-2.19
2023-02-06T05:53:19.787Z,-2.18
2023-02-06T05:56:20.816Z,-2.19
2023-02-06T05:58:57.637Z,-2.20
2023-02-06T06:01:30.869Z,-2.23
2023-02-06T06:04:01.316Z,-2.25
2023-02-06T06:06:31.907Z,-2.27
2023-02-06T06:09:05.065Z,-2.31
2023-02-06T06:11:35.691Z,-2.36
2023-02-06T06:14:08.910Z,-2.40
2023-02-06T06:16:55.745Z,-2.40
2023-02-06T06:19:27.330Z,-2.37
2023-02-06T06:21:58.385Z,-2.34
2023-02-06T06:24:32.028Z,-2.31
2023-02-06T06:27:30.099Z,-2.28
2023-02-06T06:30:41.705Z,-2.22
2023-02-06T06:34:45.955Z,-2.20
2023-02-06T06:37:34.103Z,-2.22
2023-02-06T06:40:06.263Z,-2.22
2023-02-06T06:43:19.424Z,-2.22
2023-02-06T06:46:14.542Z,-2.22
2023-02-06T06:49:20.044Z,-2.25
2023-02-06T06:51:58.161Z,-2.27
2023-02-06T06:54:32.267Z,-2.29
2023-02-06T06:57:06.144Z,-2.31
2023-02-06T06:59:37.834Z,-2.29
2023-02-06T07:02:10.213Z,-2.25
2023-02-06T07:04:55.721Z,-2.21
2023-02-06T07:07:32.082Z,-2.14
2023-02-06T07:10:11.740Z,-2.06
2023-02-06T07:13:19.360Z,-2.01
2023-02-06T07:21:32.392Z,-1.97
2023-02-06T07:24:19.190Z,-1.95
2023-02-06T07:26:49.548Z,-1.94
2023-02-06T07:29:20.459Z,-1.95
2023-02-06T07:31:51.425Z,-1.96
2023-02-06T07:34:23.011Z,-1.96
2023-02-06T07:37:01.414Z,-1.97
2023-02-06T07:39:34.389Z,-2.00
2023-02-06T07:42:04.982Z,-2.04
2023-02-06T07:44:47.340Z,-2.01
2023-02-06T07:47:18.236Z,-1.96
2023-02-06T07:49:48.595Z,-1.90
2023-02-06T07:52:31.080Z,-1.85
2023-02-06T07:55:01.719Z,-1.79
2023-02-06T07:57:32.614Z,-1.76
2023-02-06T08:00:05.339Z,-1.74
2023-02-06T08:02:42.706Z,-1.73
2023-02-06T08:05:13.431Z,-1.74
2023-02-06T08:07:46.034Z,-1.74
2023-02-06T08:10:17.192Z,-1.73
2023-02-06T08:12:50.876Z,-1.74
2023-02-06T08:15:21.692Z,-1.74
2023-02-06T08:17:52.357Z,-1.77
2023-02-06T08:20:30.042Z,-1.79
2023-02-06T08:23:00.639Z,-1.83
2023-02-06T08:25:35.451Z,-1.85
2023-02-06T08:28:06.775Z,-1.85
2023-02-06T08:30:39.661Z,-1.84
2023-02-06T08:33:12.692Z,-1.82
2023-02-06T08:35:43.475Z,-1.76
2023-02-06T08:38:15.467Z,-1.74
2023-02-06T08:40:48.789Z,-1.67
2023-02-06T08:43:25.176Z,-1.63
2023-02-06T08:45:57.961Z,-1.62
2023-02-06T08:48:28.765Z,-1.64
2023-02-06T08:51:10.567Z,-1.69
2023-02-06T08:53:41.596Z,-1.70
2023-02-06T08:56:15.502Z,-1.72
2023-02-06T08:58:46.112Z,-1.73
2023-02-06T09:01:19.185Z,-1.75
2023-02-06T09:04:04.881Z,-1.79
2023-02-06T09:06:40.511Z,-1.79
2023-02-06T09:09:12.206Z,-1.77
2023-02-06T09:11:45.439Z,-1.79
2023-02-06T09:14:18.228Z,-1.82
2023-02-06T09:16:50.944Z,-1.81
2023-02-06T09:19:22.982Z,-1.77
2023-02-06T09:21:55.949Z,-1.72
2023-02-06T09:24:27.594Z,-1.64
2023-02-06T09:27:01.091Z,-1.60
2023-02-06T09:29:33.279Z,-1.57
2023-02-06T09:32:03.751Z,-1.52
2023-02-06T09:34:34.206Z,-1.50
2023-02-06T09:37:07.243Z,-1.52
2023-02-06T09:39:41.198Z,-1.54
2023-02-06T09:42:19.772Z,-1.57
2023-02-06T09:44:59.722Z,-1.60
2023-02-06T09:47:37.975Z,-1.65
2023-02-06T09:50:34.622Z,-1.66
2023-02-06T09:53:49.923Z,-1.65
2023-02-06T09:56:48.863Z,-1.64
2023-02-06T09:59:38.797Z,-1.65
2023-02-06T10:02:50.242Z,-1.68
2023-02-06T10:05:37.633Z,-1.70
2023-02-06T10:08:32.350Z,-1.69
2023-02-06T10:11:31.690Z,-1.63
2023-02-06T10:14:07.533Z,-1.25
2023-02-06T10:17:07.162Z,-1.04
2023-02-06T10:20:04.546Z,-1.00
2023-02-06T10:23:03.287Z,-1.00
2023-02-06T10:25:37.933Z,-1.01
2023-02-06T10:28:30.033Z,-1.04
2023-02-06T10:31:28.716Z,-1.11
2023-02-06T10:34:21.110Z,-1.17
2023-02-06T10:37:10.078Z,-1.23
2023-02-06T10:40:04.314Z,-1.24
2023-02-06T10:42:42.266Z,-1.24
2023-02-06T10:45:20.287Z,-1.27
2023-02-06T10:47:58.308Z,-1.29
2023-02-06T10:50:37.917Z,-1.31
2023-02-06T10:53:41.113Z,-1.32
2023-02-06T10:56:15.462Z,-1.32
2023-02-06T10:58:55.386Z,-1.31
2023-02-06T11:01:27.684Z,-1.29
2023-02-06T11:04:36.106Z,-1.28
2023-02-06T11:07:25.898Z,-1.27
2023-02-06T11:09:57.840Z,-1.25
2023-02-06T11:12:39.114Z,-1.24
2023-02-06T11:15:45.247Z,-1.21
2023-02-06T11:18:23.744Z,-1.18
2023-02-06T11:20:56.163Z,-1.16
2023-02-06T11:23:29.672Z,-1.14
2023-02-06T11:26:15.732Z,-1.12
2023-02-06T11:29:00.893Z,-1.10
2023-02-06T11:31:53.022Z,-1.09
2023-02-06T11:34:31.484Z,-1.05
2023-02-06T11:37:08.576Z,-0.96
2023-02-06T11:39:41.491Z,-0.86
2023-02-06T11:42:23.881Z,-0.76
2023-02-06T11:44:55.722Z,-0.69
2023-02-06T11:47:39.533Z,-0.64
2023-02-06T11:51:02.098Z,-0.63
2023-02-06T11:54:52.003Z,-0.59
2023-02-06T11:57:48.080Z,-0.57
2023-02-06T12:00:52.766Z,-0.55
2023-02-06T12:03:47.039Z,-0.51
2023-02-06T12:06:26.155Z,-0.46
2023-02-06T12:09:06.977Z,-0.42
2023-02-06T12:11:56.685Z,-0.40
2023-02-06T12:14:51.237Z,-0.38
2023-02-06T12:17:39.813Z,-0.36
2023-02-06T12:24:31.526Z,-0.30
2023-02-06T12:27:06.902Z,-0.24
2023-02-06T12:29:44.851Z,-0.22
2023-02-06T12:56:04.633Z,0.26
2023-02-06T12:59:16.845Z,0.41
2023-02-06T13:02:21.415Z,0.57
2023-02-06T13:04:57.647Z,0.67
2023-02-06T13:07:28.994Z,0.73
2023-02-06T13:14:26.790Z,0.74
2023-02-06T13:30:35.746Z,0.74
2023-02-06T13:33:16.704Z,0.82
2023-02-06T13:36:07.209Z,0.79
2023-02-06T13:38:42.626Z,0.73
2023-02-06T13:41:17.232Z,0.65
2023-02-06T13:43:57.196Z,0.58
2023-02-06T13:46:56.432Z,0.55
2023-02-06T13:50:08.372Z,0.52
2023-02-06T13:52:50.096Z,0.49
2023-02-06T13:55:45.097Z,0.48
2023-02-06T13:58:40.436Z,0.43
2023-02-06T14:01:23.477Z,0.38
2023-02-06T14:03:56.472Z,0.34
2023-02-06T14:06:41.880Z,0.32
2023-02-06T14:10:10.709Z,0.27
2023-02-06T14:13:09.481Z,0.19
2023-02-06T14:15:59.160Z,0.11
2023-02-06T14:18:57.613Z,0.10
2023-02-06T14:21:57.641Z,0.07
2023-02-06T14:24:48.409Z,0.04
2023-02-06T14:28:06.994Z,0.00
2023-02-06T14:31:00.446Z,-0.04
2023-02-06T14:33:37.203Z,-0.10
2023-02-06T14:36:41.353Z,-0.12
2023-02-06T14:39:34.501Z,-0.17
2023-02-06T14:42:29.399Z,-0.23
2023-02-06T14:45:07.190Z,-0.29
2023-02-06T14:47:44.704Z,-0.36
2023-02-06T14:50:31.605Z,-0.42
2023-02-06T14:53:29.327Z,-0.47
2023-02-06T14:56:32.892Z,-0.51
2023-02-06T14:59:20.574Z,-0.53
2023-02-06T15:01:54.562Z,-0.48
2023-02-06T15:04:30.603Z,-0.46
2023-02-06T15:07:08.839Z,-0.43
2023-02-06T15:09:47.169Z,-0.38
2023-02-06T15:12:24.372Z,-0.33
2023-02-06T15:14:58.835Z,-0.29
2023-02-06T15:17:33.389Z,-0.27
2023-02-06T15:20:40.938Z,-0.26
2023-02-06T15:23:40.760Z,-0.26
2023-02-06T15:26:27.494Z,-0.28
2023-02-06T15:29:05.074Z,-0.31
2023-02-06T15:31:36.818Z,-0.32
2023-02-06T15:34:08.005Z,-0.33
2023-02-06T15:36:44.026Z,-0.36
2023-02-06T15:39:22.333Z,-0.37
2023-02-06T15:42:17.273Z,-0.39
2023-02-06T15:45:10.789Z,-0.43
2023-02-06T15:47:44.969Z,-0.45
2023-02-06T15:50:23.682Z,-0.48
2023-02-06T15:52:54.808Z,-0.51
2023-02-06T15:55:38.214Z,-0.54
2023-02-06T15:58:09.798Z,-0.57
2023-02-06T16:00:43.695Z,-0.63
2023-02-06T16:07:21.199Z,-0.76
2023-02-06T16:10:16.106Z,-0.80
2023-02-06T16:13:26.748Z,-0.83
2023-02-06T16:16:29.680Z,-0.87
2023-02-06T16:19:04.479Z,-0.92
2023-02-06T16:21:40.422Z,-0.93
2023-02-06T16:24:19.671Z,-0.91
2023-02-06T16:26:53.184Z,-0.89
2023-02-06T16:29:35.275Z,-0.88
2023-02-06T16:32:20.033Z,-0.86
2023-02-06T16:34:51.500Z,-0.83
2023-02-06T16:38:01.457Z,-0.81
2023-02-06T16:40:37.989Z,-0.81
2023-02-06T16:43:21.851Z,-0.80
2023-02-06T16:46:07.635Z,-0.82
2023-02-06T16:49:19.334Z,-0.84
2023-02-06T16:52:47.256Z,-0.86
2023-02-06T17:00:01.026Z,-0.96
2023-02-06T17:02:50.957Z,-1.00
2023-02-06T17:05:35.321Z,-1.04
2023-02-06T17:08:28.066Z,-1.07
2023-02-06T17:11:13.004Z,-1.13
2023-02-06T17:13:57.242Z,-1.21
2023-02-06T17:16:33.591Z,-1.25
2023-02-06T17:19:21.627Z,-1.27
2023-02-06T17:21:57.825Z,-1.30
2023-02-06T17:24:36.950Z,-1.32
2023-02-06T17:27:25.550Z,-1.31
2023-02-06T17:30:00.804Z,-1.26
2023-02-06T17:32:37.887Z,-1.26
2023-02-06T17:35:17.207Z,-1.26
2023-02-06T17:37:53.984Z,-1.24
2023-02-06T17:40:37.447Z,-1.22
2023-02-06T17:43:22.051Z,-1.20
2023-02-06T17:45:56.482Z,-1.16
2023-02-06T17:48:36.635Z,-1.16
2023-02-06T17:51:18.740Z,-1.14
2023-02-06T17:53:59.023Z,-1.13
2023-02-06T17:56:37.298Z,-1.14
2023-02-06T17:59:21.629Z,-1.14
2023-02-06T18:02:03.868Z,-1.15
2023-02-06T18:04:55.737Z,-1.14
2023-02-06T18:07:50.111Z,-1.19
2023-02-06T18:10:24.728Z,-1.21
2023-02-06T18:12:59.434Z,-1.22
2023-02-06T18:15:34.357Z,-1.24
2023-02-06T18:18:07.109Z,-1.26
2023-02-06T18:20:43.515Z,-1.25
2023-02-06T18:23:22.451Z,-1.22
2023-02-06T18:25:55.043Z,-1.18
2023-02-06T18:28:34.724Z,-1.14
2023-02-06T18:31:08.627Z,-1.10
2023-02-06T18:33:41.002Z,-1.11
2023-02-06T18:36:16.160Z,-1.12
2023-02-06T18:38:50.307Z,-1.12
2023-02-06T18:41:40.610Z,-1.12
2023-02-06T18:44:16.448Z,-1.12
2023-02-06T18:46:53.368Z,-1.14
2023-02-06T18:49:27.035Z,-1.14
2023-02-06T18:52:03.237Z,-1.15
2023-02-06T18:54:42.938Z,-1.16
2023-02-06T18:57:16.652Z,-1.20
2023-02-06T18:59:50.472Z,-1.24
2023-02-06T19:02:23.615Z,-1.27
2023-02-06T19:05:06.929Z,-1.31
2023-02-06T19:07:43.114Z,-1.36
2023-02-06T19:10:18.957Z,-1.41
2023-02-06T19:13:08.821Z,-1.40
2023-02-06T19:15:49.284Z,-1.37
2023-02-06T19:18:38.748Z,-1.32
2023-02-06T19:22:24.949Z,-1.29
2023-02-06T19:29:16.772Z,-1.23
2023-02-06T19:59:04.904Z,-1.42
2023-02-06T20:02:02.703Z,-1.43
2023-02-06T20:05:32.753Z,-1.45
2023-02-06T20:08:08.942Z,-1.38
2023-02-06T20:10:46.732Z,-1.32
2023-02-06T20:26:11.929Z,-1.16
2023-02-06T20:51:16.649Z,-1.30
2023-02-06T20:55:02.045Z,-1.31
2023-02-06T20:57:53.847Z,-1.27
2023-02-06T21:01:40.136Z,-1.22
2023-02-06T21:23:07.865Z,-1.09
2023-02-06T21:58:22.244Z,-0.93
2023-02-06T22:01:05.341Z,-0.90
2023-02-06T22:03:51.126Z,-0.88
2023-02-06T22:07:04.502Z,-0.87
2023-02-06T22:19:32.512Z,-0.98
2023-02-06T22:22:14.576Z,-1.01
2023-02-06T22:25:01.553Z,-1.02
2023-02-06T22:27:39.373Z,-1.00
2023-02-06T22:30:15.299Z,-0.96
2023-02-06T22:33:03.258Z,-0.91
2023-02-06T22:36:11.523Z,-0.85
2023-02-06T22:39:29.393Z,-0.82
2023-02-06T22:42:27.302Z,-0.79
2023-02-06T22:45:06.998Z,-0.78
2023-02-06T22:47:43.675Z,-0.77
2023-02-06T22:50:21.663Z,-0.77
2023-02-06T22:53:13.395Z,-0.77
2023-02-06T22:56:05.573Z,-0.80
2023-02-06T22:58:38.198Z,-0.82
2023-02-06T23:01:14.665Z,-0.84
2023-02-06T23:04:31.169Z,-0.85
2023-02-06T23:07:03.663Z,-0.83
2023-02-06T23:09:37.618Z,-0.80
2023-02-06T23:12:10.162Z,-0.77
2023-02-06T23:14:45.042Z,-0.72
2023-02-06T23:17:18.058Z,-0.69
2023-02-06T23:19:50.518Z,-0.66
2023-02-06T23:22:23.552Z,-0.66
2023-02-06T23:24:57.181Z,-0.66
2023-02-06T23:27:29.918Z,-0.67
2023-02-06T23:30:01.457Z,-0.69
2023-02-06T23:32:36.946Z,-0.70
2023-02-06T23:35:09.431Z,-0.70
2023-02-06T23:37:43.711Z,-0.72
2023-02-06T23:40:17.818Z,-0.71
2023-02-06T23:42:48.705Z,-0.69
2023-02-06T23:45:22.907Z,-0.66
2023-02-06T23:47:59.019Z,-0.65
2023-02-06T23:50:30.424Z,-0.62
2023-02-06T23:53:01.263Z,-0.62
2023-02-06T23:55:32.776Z,-0.65
2023-02-06T23:58:03.882Z,-0.70
